sensor_id;sensor_type;location;lat;lon;timestamp;pressure;altitude;pressure_sealevel;temperature
12854;BMP180;6495;51.808;7.478;2022-11-20T00:00:57;100672.00;;;-0.70
12854;BMP180;6495;51.808;7.478;2022-11-20T00:03:52;100665.00;;;-0.70
12854;BMP180;6495;51.808;7.478;2022-11-20T00:06:39;100669.00;;;-0.70
12854;BMP180;6495;51.808;7.478;2022-11-20T00:09:25;100666.00;;;-0.80
12854;BMP180;6495;51.808;7.478;2022-11-20T00:12:12;100669.00;;;-0.80
12854;BMP180;6495;51.808;7.478;2022-11-20T00:14:59;100669.00;;;-0.80
12854;BMP180;6495;51.808;7.478;2022-11-20T00:17:47;100673.00;;;-0.80
12854;BMP180;6495;51.808;7.478;2022-11-20T00:20:34;100675.00;;;-0.80
12854;BMP180;6495;51.808;7.478;2022-11-20T00:23:21;100683.00;;;-0.80
12854;BMP180;6495;51.808;7.478;2022-11-20T00:26:10;100684.00;;;-0.80
12854;BMP180;6495;51.808;7.478;2022-11-20T00:29:00;100672.00;;;-0.90
12854;BMP180;6495;51.808;7.478;2022-11-20T00:31:47;100673.00;;;-0.90
12854;BMP180;6495;51.808;7.478;2022-11-20T00:34:35;100663.00;;;-0.90
12854;BMP180;6495;51.808;7.478;2022-11-20T00:37:22;100675.00;;;-0.90
12854;BMP180;6495;51.808;7.478;2022-11-20T00:40:10;100675.00;;;-0.90
12854;BMP180;6495;51.808;7.478;2022-11-20T00:42:57;100674.00;;;-0.90
12854;BMP180;6495;51.808;7.478;2022-11-20T00:45:44;100673.00;;;-0.90
12854;BMP180;6495;51.808;7.478;2022-11-20T00:48:31;100663.00;;;-0.90
12854;BMP180;6495;51.808;7.478;2022-11-20T00:51:22;100663.00;;;-0.90
12854;BMP180;6495;51.808;7.478;2022-11-20T00:54:09;100668.00;;;-0.90
12854;BMP180;6495;51.808;7.478;2022-11-20T00:56:56;100661.00;;;-0.90
12854;BMP180;6495;51.808;7.478;2022-11-20T00:59:42;100668.00;;;-1.00
12854;BMP180;6495;51.808;7.478;2022-11-20T01:02:29;100660.00;;;-1.00
12854;BMP180;6495;51.808;7.478;2022-11-20T01:05:16;100666.00;;;-1.00
12854;BMP180;6495;51.808;7.478;2022-11-20T01:08:04;100673.00;;;-1.00
12854;BMP180;6495;51.808;7.478;2022-11-20T01:10:51;100676.00;;;-1.00
12854;BMP180;6495;51.808;7.478;2022-11-20T01:13:38;100674.00;;;-1.00
12854;BMP180;6495;51.808;7.478;2022-11-20T01:16:29;100673.00;;;-1.00
12854;BMP180;6495;51.808;7.478;2022-11-20T01:19:19;100656.00;;;-1.00
12854;BMP180;6495;51.808;7.478;2022-11-20T01:22:06;100657.00;;;-1.00
12854;BMP180;6495;51.808;7.478;2022-11-20T01:24:54;100653.00;;;-1.00
12854;BMP180;6495;51.808;7.478;2022-11-20T01:27:41;100658.00;;;-1.00
12854;BMP180;6495;51.808;7.478;2022-11-20T01:30:28;100655.00;;;-1.10
12854;BMP180;6495;51.808;7.478;2022-11-20T01:33:15;100656.00;;;-1.10
12854;BMP180;6495;51.808;7.478;2022-11-20T01:36:07;100655.00;;;-1.10
12854;BMP180;6495;51.808;7.478;2022-11-20T01:38:58;100644.00;;;-1.10
12854;BMP180;6495;51.808;7.478;2022-11-20T01:41:48;100641.00;;;-1.10
12854;BMP180;6495;51.808;7.478;2022-11-20T01:44:57;100640.00;;;-1.20
12854;BMP180;6495;51.808;7.478;2022-11-20T01:47:46;100633.00;;;-1.30
12854;BMP180;6495;51.808;7.478;2022-11-20T01:50:35;100626.00;;;-1.30
12854;BMP180;6495;51.808;7.478;2022-11-20T01:53:28;100639.00;;;-1.30
12854;BMP180;6495;51.808;7.478;2022-11-20T01:56:18;100627.00;;;-1.40
12854;BMP180;6495;51.808;7.478;2022-11-20T01:59:08;100617.00;;;-1.40
12854;BMP180;6495;51.808;7.478;2022-11-20T02:01:57;100615.00;;;-1.40
12854;BMP180;6495;51.808;7.478;2022-11-20T02:04:45;100616.00;;;-1.40
12854;BMP180;6495;51.808;7.478;2022-11-20T02:07:32;100611.00;;;-1.50
12854;BMP180;6495;51.808;7.478;2022-11-20T02:10:19;100614.00;;;-1.50
12854;BMP180;6495;51.808;7.478;2022-11-20T02:13:07;100616.00;;;-1.50
12854;BMP180;6495;51.808;7.478;2022-11-20T02:16:18;100602.00;;;-1.50
12854;BMP180;6495;51.808;7.478;2022-11-20T02:19:22;100602.00;;;-1.50
12854;BMP180;6495;51.808;7.478;2022-11-20T02:22:17;100593.00;;;-1.50
12854;BMP180;6495;51.808;7.478;2022-11-20T02:25:08;100601.00;;;-1.50
12854;BMP180;6495;51.808;7.478;2022-11-20T02:27:56;100594.00;;;-1.50
12854;BMP180;6495;51.808;7.478;2022-11-20T02:30:43;100604.00;;;-1.50
12854;BMP180;6495;51.808;7.478;2022-11-20T02:33:30;100597.00;;;-1.60
12854;BMP180;6495;51.808;7.478;2022-11-20T02:36:17;100605.00;;;-1.60
12854;BMP180;6495;51.808;7.478;2022-11-20T02:39:05;100601.00;;;-1.60
12854;BMP180;6495;51.808;7.478;2022-11-20T02:41:55;100606.00;;;-1.60
12854;BMP180;6495;51.808;7.478;2022-11-20T02:44:42;100606.00;;;-1.60
12854;BMP180;6495;51.808;7.478;2022-11-20T02:47:29;100596.00;;;-1.60
12854;BMP180;6495;51.808;7.478;2022-11-20T02:50:17;100593.00;;;-1.60
12854;BMP180;6495;51.808;7.478;2022-11-20T02:53:04;100583.00;;;-1.60
12854;BMP180;6495;51.808;7.478;2022-11-20T02:55:51;100596.00;;;-1.60
12854;BMP180;6495;51.808;7.478;2022-11-20T02:58:39;100599.00;;;-1.60
12854;BMP180;6495;51.808;7.478;2022-11-20T03:01:26;100591.00;;;-1.50
12854;BMP180;6495;51.808;7.478;2022-11-20T03:04:13;100594.00;;;-1.60
12854;BMP180;6495;51.808;7.478;2022-11-20T03:07:00;100580.00;;;-1.60
12854;BMP180;6495;51.808;7.478;2022-11-20T03:09:47;100575.00;;;-1.60
12854;BMP180;6495;51.808;7.478;2022-11-20T03:12:33;100579.00;;;-1.60
12854;BMP180;6495;51.808;7.478;2022-11-20T03:15:22;100573.00;;;-1.60
12854;BMP180;6495;51.808;7.478;2022-11-20T03:18:10;100572.00;;;-1.60
12854;BMP180;6495;51.808;7.478;2022-11-20T03:20:59;100571.00;;;-1.60
12854;BMP180;6495;51.808;7.478;2022-11-20T03:23:45;100562.00;;;-1.60
12854;BMP180;6495;51.808;7.478;2022-11-20T03:26:32;100556.00;;;-1.60
12854;BMP180;6495;51.808;7.478;2022-11-20T03:29:19;100563.00;;;-1.70
12854;BMP180;6495;51.808;7.478;2022-11-20T03:32:08;100548.00;;;-1.70
12854;BMP180;6495;51.808;7.478;2022-11-20T03:34:55;100551.00;;;-1.70
12854;BMP180;6495;51.808;7.478;2022-11-20T03:37:41;100554.00;;;-1.70
12854;BMP180;6495;51.808;7.478;2022-11-20T03:40:28;100556.00;;;-1.70
12854;BMP180;6495;51.808;7.478;2022-11-20T03:43:15;100554.00;;;-1.70
12854;BMP180;6495;51.808;7.478;2022-11-20T03:46:02;100551.00;;;-1.70
12854;BMP180;6495;51.808;7.478;2022-11-20T03:48:51;100551.00;;;-1.70
12854;BMP180;6495;51.808;7.478;2022-11-20T03:51:38;100553.00;;;-1.70
12854;BMP180;6495;51.808;7.478;2022-11-20T03:54:25;100545.00;;;-1.70
12854;BMP180;6495;51.808;7.478;2022-11-20T03:57:12;100549.00;;;-1.70
12854;BMP180;6495;51.808;7.478;2022-11-20T03:59:59;100545.00;;;-1.60
12854;BMP180;6495;51.808;7.478;2022-11-20T04:02:46;100542.00;;;-1.60
12854;BMP180;6495;51.808;7.478;2022-11-20T04:05:34;100540.00;;;-1.60
12854;BMP180;6495;51.808;7.478;2022-11-20T04:08:21;100541.00;;;-1.60
12854;BMP180;6495;51.808;7.478;2022-11-20T04:11:10;100545.00;;;-1.50
12854;BMP180;6495;51.808;7.478;2022-11-20T04:14:00;100529.00;;;-1.50
12854;BMP180;6495;51.808;7.478;2022-11-20T04:16:47;100537.00;;;-1.50
12854;BMP180;6495;51.808;7.478;2022-11-20T04:19:34;100544.00;;;-1.50
12854;BMP180;6495;51.808;7.478;2022-11-20T04:22:22;100540.00;;;-1.50
12854;BMP180;6495;51.808;7.478;2022-11-20T04:25:09;100549.00;;;-1.40
12854;BMP180;6495;51.808;7.478;2022-11-20T04:27:55;100553.00;;;-1.40
12854;BMP180;6495;51.808;7.478;2022-11-20T04:30:43;100543.00;;;-1.40
12854;BMP180;6495;51.808;7.478;2022-11-20T04:33:31;100536.00;;;-1.30
12854;BMP180;6495;51.808;7.478;2022-11-20T04:36:21;100531.00;;;-1.30
12854;BMP180;6495;51.808;7.478;2022-11-20T04:39:14;100528.00;;;-1.30
12854;BMP180;6495;51.808;7.478;2022-11-20T04:42:02;100541.00;;;-1.30
12854;BMP180;6495;51.808;7.478;2022-11-20T04:45:08;100534.00;;;-1.20
12854;BMP180;6495;51.808;7.478;2022-11-20T04:47:55;100537.00;;;-1.20
12854;BMP180;6495;51.808;7.478;2022-11-20T04:50:41;100547.00;;;-1.20
12854;BMP180;6495;51.808;7.478;2022-11-20T04:53:28;100542.00;;;-1.20
12854;BMP180;6495;51.808;7.478;2022-11-20T04:56:18;100542.00;;;-1.20
12854;BMP180;6495;51.808;7.478;2022-11-20T04:59:05;100534.00;;;-1.20
12854;BMP180;6495;51.808;7.478;2022-11-20T05:01:52;100533.00;;;-1.20
12854;BMP180;6495;51.808;7.478;2022-11-20T05:04:39;100532.00;;;-1.20
12854;BMP180;6495;51.808;7.478;2022-11-20T05:07:26;100530.00;;;-1.20
12854;BMP180;6495;51.808;7.478;2022-11-20T05:10:13;100528.00;;;-1.20
12854;BMP180;6495;51.808;7.478;2022-11-20T05:13:01;100529.00;;;-1.20
12854;BMP180;6495;51.808;7.478;2022-11-20T05:15:48;100538.00;;;-1.20
12854;BMP180;6495;51.808;7.478;2022-11-20T05:18:36;100545.00;;;-1.20
12854;BMP180;6495;51.808;7.478;2022-11-20T05:21:22;100546.00;;;-1.20
12854;BMP180;6495;51.808;7.478;2022-11-20T05:24:09;100543.00;;;-1.20
12854;BMP180;6495;51.808;7.478;2022-11-20T05:26:56;100531.00;;;-1.20
12854;BMP180;6495;51.808;7.478;2022-11-20T05:29:44;100519.00;;;-1.20
12854;BMP180;6495;51.808;7.478;2022-11-20T05:32:30;100519.00;;;-1.20
12854;BMP180;6495;51.808;7.478;2022-11-20T05:35:17;100528.00;;;-1.20
12854;BMP180;6495;51.808;7.478;2022-11-20T05:38:04;100528.00;;;-1.20
12854;BMP180;6495;51.808;7.478;2022-11-20T05:40:51;100536.00;;;-1.20
12854;BMP180;6495;51.808;7.478;2022-11-20T05:43:40;100534.00;;;-1.20
12854;BMP180;6495;51.808;7.478;2022-11-20T05:46:28;100539.00;;;-1.20
12854;BMP180;6495;51.808;7.478;2022-11-20T05:49:15;100540.00;;;-1.30
12854;BMP180;6495;51.808;7.478;2022-11-20T05:52:01;100548.00;;;-1.30
12854;BMP180;6495;51.808;7.478;2022-11-20T05:54:48;100527.00;;;-1.30
12854;BMP180;6495;51.808;7.478;2022-11-20T05:57:35;100543.00;;;-1.30
12854;BMP180;6495;51.808;7.478;2022-11-20T06:00:22;100537.00;;;-1.40
12854;BMP180;6495;51.808;7.478;2022-11-20T06:03:10;100532.00;;;-1.40
12854;BMP180;6495;51.808;7.478;2022-11-20T06:05:59;100532.00;;;-1.40
12854;BMP180;6495;51.808;7.478;2022-11-20T06:08:46;100528.00;;;-1.40
12854;BMP180;6495;51.808;7.478;2022-11-20T06:11:33;100527.00;;;-1.30
12854;BMP180;6495;51.808;7.478;2022-11-20T06:14:20;100526.00;;;-1.30
12854;BMP180;6495;51.808;7.478;2022-11-20T06:17:07;100523.00;;;-1.40
12854;BMP180;6495;51.808;7.478;2022-11-20T06:19:55;100516.00;;;-1.40
12854;BMP180;6495;51.808;7.478;2022-11-20T06:22:41;100534.00;;;-1.40
12854;BMP180;6495;51.808;7.478;2022-11-20T06:25:28;100529.00;;;-1.40
12854;BMP180;6495;51.808;7.478;2022-11-20T06:28:15;100522.00;;;-1.50
12854;BMP180;6495;51.808;7.478;2022-11-20T06:31:02;100536.00;;;-1.50
12854;BMP180;6495;51.808;7.478;2022-11-20T06:33:50;100530.00;;;-1.50
12854;BMP180;6495;51.808;7.478;2022-11-20T06:36:39;100542.00;;;-1.50
12854;BMP180;6495;51.808;7.478;2022-11-20T06:39:26;100541.00;;;-1.60
12854;BMP180;6495;51.808;7.478;2022-11-20T06:42:12;100545.00;;;-1.50
12854;BMP180;6495;51.808;7.478;2022-11-20T06:44:59;100548.00;;;-1.60
12854;BMP180;6495;51.808;7.478;2022-11-20T06:47:45;100553.00;;;-1.50
12854;BMP180;6495;51.808;7.478;2022-11-20T06:50:32;100539.00;;;-1.60
12854;BMP180;6495;51.808;7.478;2022-11-20T06:53:21;100544.00;;;-1.60
12854;BMP180;6495;51.808;7.478;2022-11-20T06:56:08;100543.00;;;-1.60
12854;BMP180;6495;51.808;7.478;2022-11-20T06:58:55;100543.00;;;-1.60
12854;BMP180;6495;51.808;7.478;2022-11-20T07:01:41;100545.00;;;-1.60
12854;BMP180;6495;51.808;7.478;2022-11-20T07:04:29;100553.00;;;-1.60
12854;BMP180;6495;51.808;7.478;2022-11-20T07:07:17;100540.00;;;-1.50
12854;BMP180;6495;51.808;7.478;2022-11-20T07:10:06;100547.00;;;-1.50
12854;BMP180;6495;51.808;7.478;2022-11-20T07:12:54;100543.00;;;-1.60
12854;BMP180;6495;51.808;7.478;2022-11-20T07:15:41;100546.00;;;-1.60
12854;BMP180;6495;51.808;7.478;2022-11-20T07:18:28;100545.00;;;-1.50
12854;BMP180;6495;51.808;7.478;2022-11-20T07:21:15;100549.00;;;-1.50
12854;BMP180;6495;51.808;7.478;2022-11-20T07:24:02;100559.00;;;-1.50
12854;BMP180;6495;51.808;7.478;2022-11-20T07:26:50;100549.00;;;-1.50
12854;BMP180;6495;51.808;7.478;2022-11-20T07:29:37;100559.00;;;-1.50
12854;BMP180;6495;51.808;7.478;2022-11-20T07:32:23;100558.00;;;-1.50
12854;BMP180;6495;51.808;7.478;2022-11-20T07:35:10;100560.00;;;-1.50
12854;BMP180;6495;51.808;7.478;2022-11-20T07:37:57;100568.00;;;-1.40
12854;BMP180;6495;51.808;7.478;2022-11-20T07:40:44;100559.00;;;-1.40
12854;BMP180;6495;51.808;7.478;2022-11-20T07:43:32;100554.00;;;-1.40
12854;BMP180;6495;51.808;7.478;2022-11-20T07:46:25;100556.00;;;-1.30
12854;BMP180;6495;51.808;7.478;2022-11-20T07:49:12;100554.00;;;-1.30
12854;BMP180;6495;51.808;7.478;2022-11-20T07:51:59;100561.00;;;-1.20
12854;BMP180;6495;51.808;7.478;2022-11-20T07:54:49;100550.00;;;-1.20
12854;BMP180;6495;51.808;7.478;2022-11-20T07:57:36;100551.00;;;-1.20
12854;BMP180;6495;51.808;7.478;2022-11-20T08:00:25;100552.00;;;-1.20
12854;BMP180;6495;51.808;7.478;2022-11-20T08:03:12;100560.00;;;-1.10
12854;BMP180;6495;51.808;7.478;2022-11-20T08:06:05;100570.00;;;-1.10
12854;BMP180;6495;51.808;7.478;2022-11-20T08:08:52;100566.00;;;-1.00
12854;BMP180;6495;51.808;7.478;2022-11-20T08:11:39;100561.00;;;-0.90
12854;BMP180;6495;51.808;7.478;2022-11-20T08:14:44;100554.00;;;-0.90
12854;BMP180;6495;51.808;7.478;2022-11-20T08:17:32;100563.00;;;-0.80
12854;BMP180;6495;51.808;7.478;2022-11-20T08:20:19;100557.00;;;-0.80
12854;BMP180;6495;51.808;7.478;2022-11-20T08:23:07;100563.00;;;-0.70
12854;BMP180;6495;51.808;7.478;2022-11-20T08:25:54;100565.00;;;-0.60
12854;BMP180;6495;51.808;7.478;2022-11-20T08:28:49;100561.00;;;-0.50
12854;BMP180;6495;51.808;7.478;2022-11-20T08:31:43;100559.00;;;-0.40
12854;BMP180;6495;51.808;7.478;2022-11-20T08:34:31;100556.00;;;-0.30
12854;BMP180;6495;51.808;7.478;2022-11-20T08:37:18;100565.00;;;-0.20
12854;BMP180;6495;51.808;7.478;2022-11-20T08:40:07;100574.00;;;0.00
12854;BMP180;6495;51.808;7.478;2022-11-20T08:42:54;100570.00;;;0.10
12854;BMP180;6495;51.808;7.478;2022-11-20T08:45:41;100557.00;;;0.30
12854;BMP180;6495;51.808;7.478;2022-11-20T08:48:27;100565.00;;;0.40
12854;BMP180;6495;51.808;7.478;2022-11-20T08:51:16;100575.00;;;0.50
12854;BMP180;6495;51.808;7.478;2022-11-20T08:54:03;100551.00;;;0.60
12854;BMP180;6495;51.808;7.478;2022-11-20T08:56:50;100564.00;;;0.70
12854;BMP180;6495;51.808;7.478;2022-11-20T08:59:37;100563.00;;;0.80
12854;BMP180;6495;51.808;7.478;2022-11-20T09:02:44;100566.00;;;1.00
12854;BMP180;6495;51.808;7.478;2022-11-20T09:05:31;100573.00;;;1.10
12854;BMP180;6495;51.808;7.478;2022-11-20T09:08:18;100569.00;;;1.30
12854;BMP180;6495;51.808;7.478;2022-11-20T09:11:06;100562.00;;;1.40
12854;BMP180;6495;51.808;7.478;2022-11-20T09:13:56;100570.00;;;1.50
12854;BMP180;6495;51.808;7.478;2022-11-20T09:16:44;100565.00;;;1.60
12854;BMP180;6495;51.808;7.478;2022-11-20T09:19:31;100564.00;;;1.80
12854;BMP180;6495;51.808;7.478;2022-11-20T09:22:25;100560.00;;;1.90
12854;BMP180;6495;51.808;7.478;2022-11-20T09:25:15;100562.00;;;2.10
12854;BMP180;6495;51.808;7.478;2022-11-20T09:28:01;100563.00;;;2.20
12854;BMP180;6495;51.808;7.478;2022-11-20T09:30:48;100575.00;;;2.30
12854;BMP180;6495;51.808;7.478;2022-11-20T09:33:36;100567.00;;;2.40
12854;BMP180;6495;51.808;7.478;2022-11-20T09:36:24;100559.00;;;2.60
12854;BMP180;6495;51.808;7.478;2022-11-20T09:39:11;100564.00;;;2.70
12854;BMP180;6495;51.808;7.478;2022-11-20T09:42:14;100554.00;;;2.80
12854;BMP180;6495;51.808;7.478;2022-11-20T09:45:23;100552.00;;;2.90
12854;BMP180;6495;51.808;7.478;2022-11-20T09:48:40;100553.00;;;3.00
12854;BMP180;6495;51.808;7.478;2022-11-20T09:51:42;100557.00;;;3.10
12854;BMP180;6495;51.808;7.478;2022-11-20T09:54:37;100561.00;;;3.20
12854;BMP180;6495;51.808;7.478;2022-11-20T09:57:38;100549.00;;;3.30
12854;BMP180;6495;51.808;7.478;2022-11-20T10:00:28;100538.00;;;3.40
12854;BMP180;6495;51.808;7.478;2022-11-20T10:03:21;100544.00;;;3.50
12854;BMP180;6495;51.808;7.478;2022-11-20T10:06:22;100538.00;;;3.50
12854;BMP180;6495;51.808;7.478;2022-11-20T10:09:27;100542.00;;;3.50
12854;BMP180;6495;51.808;7.478;2022-11-20T10:12:27;100535.00;;;3.60
12854;BMP180;6495;51.808;7.478;2022-11-20T10:15:33;100541.00;;;3.80
12854;BMP180;6495;51.808;7.478;2022-11-20T10:18:38;100535.00;;;3.90
12854;BMP180;6495;51.808;7.478;2022-11-20T10:21:39;100532.00;;;4.00
12854;BMP180;6495;51.808;7.478;2022-11-20T10:24:44;100531.00;;;4.00
12854;BMP180;6495;51.808;7.478;2022-11-20T10:28:10;100537.00;;;4.10
12854;BMP180;6495;51.808;7.478;2022-11-20T10:31:11;100532.00;;;4.20
12854;BMP180;6495;51.808;7.478;2022-11-20T10:34:03;100527.00;;;4.30
12854;BMP180;6495;51.808;7.478;2022-11-20T10:37:16;100533.00;;;4.40
12854;BMP180;6495;51.808;7.478;2022-11-20T10:40:19;100536.00;;;4.40
12854;BMP180;6495;51.808;7.478;2022-11-20T10:43:16;100529.00;;;4.50
12854;BMP180;6495;51.808;7.478;2022-11-20T10:46:15;100526.00;;;4.70
12854;BMP180;6495;51.808;7.478;2022-11-20T10:49:09;100534.00;;;4.80
12854;BMP180;6495;51.808;7.478;2022-11-20T10:52:11;100526.00;;;5.00
12854;BMP180;6495;51.808;7.478;2022-11-20T10:55:10;100519.00;;;5.10
12854;BMP180;6495;51.808;7.478;2022-11-20T10:58:08;100520.00;;;5.10
12854;BMP180;6495;51.808;7.478;2022-11-20T11:01:05;100516.00;;;5.20
12854;BMP180;6495;51.808;7.478;2022-11-20T11:03:55;100506.00;;;5.20
12854;BMP180;6495;51.808;7.478;2022-11-20T11:06:47;100499.00;;;5.30
12854;BMP180;6495;51.808;7.478;2022-11-20T11:09:39;100509.00;;;5.30
12854;BMP180;6495;51.808;7.478;2022-11-20T11:12:28;100506.00;;;5.30
12854;BMP180;6495;51.808;7.478;2022-11-20T11:15:26;100506.00;;;5.40
12854;BMP180;6495;51.808;7.478;2022-11-20T11:18:25;100501.00;;;5.50
12854;BMP180;6495;51.808;7.478;2022-11-20T11:21:13;100497.00;;;5.50
12854;BMP180;6495;51.808;7.478;2022-11-20T11:24:02;100493.00;;;5.50
12854;BMP180;6495;51.808;7.478;2022-11-20T11:27:13;100488.00;;;5.50
12854;BMP180;6495;51.808;7.478;2022-11-20T11:30:13;100481.00;;;5.50
12854;BMP180;6495;51.808;7.478;2022-11-20T11:33:06;100488.00;;;5.40
12854;BMP180;6495;51.808;7.478;2022-11-20T11:36:00;100488.00;;;5.40
12854;BMP180;6495;51.808;7.478;2022-11-20T11:38:52;100488.00;;;5.40
12854;BMP180;6495;51.808;7.478;2022-11-20T11:41:40;100487.00;;;5.40
12854;BMP180;6495;51.808;7.478;2022-11-20T11:44:30;100493.00;;;5.30
12854;BMP180;6495;51.808;7.478;2022-11-20T11:47:44;100486.00;;;5.30
12854;BMP180;6495;51.808;7.478;2022-11-20T11:50:31;100470.00;;;5.20
12854;BMP180;6495;51.808;7.478;2022-11-20T11:53:23;100476.00;;;5.20
12854;BMP180;6495;51.808;7.478;2022-11-20T11:56:14;100474.00;;;5.20
12854;BMP180;6495;51.808;7.478;2022-11-20T11:59:06;100473.00;;;5.10
12854;BMP180;6495;51.808;7.478;2022-11-20T12:02:04;100471.00;;;5.00
12854;BMP180;6495;51.808;7.478;2022-11-20T12:05:03;100465.00;;;4.90
12854;BMP180;6495;51.808;7.478;2022-11-20T12:07:59;100459.00;;;4.90
12854;BMP180;6495;51.808;7.478;2022-11-20T12:11:04;100441.00;;;4.90
12854;BMP180;6495;51.808;7.478;2022-11-20T12:13:58;100446.00;;;4.90
12854;BMP180;6495;51.808;7.478;2022-11-20T12:16:50;100443.00;;;4.80
12854;BMP180;6495;51.808;7.478;2022-11-20T12:19:39;100437.00;;;4.80
12854;BMP180;6495;51.808;7.478;2022-11-20T12:22:34;100437.00;;;4.70
12854;BMP180;6495;51.808;7.478;2022-11-20T12:25:29;100431.00;;;4.60
12854;BMP180;6495;51.808;7.478;2022-11-20T12:28:44;100419.00;;;4.60
12854;BMP180;6495;51.808;7.478;2022-11-20T12:31:54;100408.00;;;4.50
12854;BMP180;6495;51.808;7.478;2022-11-20T12:34:58;100415.00;;;4.60
12854;BMP180;6495;51.808;7.478;2022-11-20T12:38:20;100398.00;;;4.60
12854;BMP180;6495;51.808;7.478;2022-11-20T12:41:24;100408.00;;;4.60
12854;BMP180;6495;51.808;7.478;2022-11-20T12:44:57;100408.00;;;4.60
12854;BMP180;6495;51.808;7.478;2022-11-20T12:48:19;100395.00;;;4.50
12854;BMP180;6495;51.808;7.478;2022-11-20T12:51:34;100399.00;;;4.50
12854;BMP180;6495;51.808;7.478;2022-11-20T12:55:25;100397.00;;;4.60
12854;BMP180;6495;51.808;7.478;2022-11-20T12:58:25;100386.00;;;4.50
12854;BMP180;6495;51.808;7.478;2022-11-20T13:01:25;100383.00;;;4.60
12854;BMP180;6495;51.808;7.478;2022-11-20T13:04:55;100371.00;;;4.60
12854;BMP180;6495;51.808;7.478;2022-11-20T13:07:52;100365.00;;;4.50
12854;BMP180;6495;51.808;7.478;2022-11-20T13:10:47;100355.00;;;4.50
12854;BMP180;6495;51.808;7.478;2022-11-20T13:14:02;100360.00;;;4.50
12854;BMP180;6495;51.808;7.478;2022-11-20T13:16:58;100345.00;;;4.50
12854;BMP180;6495;51.808;7.478;2022-11-20T13:19:55;100336.00;;;4.50
12854;BMP180;6495;51.808;7.478;2022-11-20T13:22:46;100336.00;;;4.50
12854;BMP180;6495;51.808;7.478;2022-11-20T13:25:36;100318.00;;;4.50
12854;BMP180;6495;51.808;7.478;2022-11-20T13:28:29;100319.00;;;4.50
12854;BMP180;6495;51.808;7.478;2022-11-20T13:31:31;100313.00;;;4.40
12854;BMP180;6495;51.808;7.478;2022-11-20T13:34:26;100315.00;;;4.40
12854;BMP180;6495;51.808;7.478;2022-11-20T13:37:27;100313.00;;;4.40
12854;BMP180;6495;51.808;7.478;2022-11-20T13:40:22;100302.00;;;4.40
12854;BMP180;6495;51.808;7.478;2022-11-20T13:43:22;100292.00;;;4.40
12854;BMP180;6495;51.808;7.478;2022-11-20T13:46:10;100279.00;;;4.30
12854;BMP180;6495;51.808;7.478;2022-11-20T13:49:07;100295.00;;;4.30
12854;BMP180;6495;51.808;7.478;2022-11-20T13:52:23;100281.00;;;4.30
12854;BMP180;6495;51.808;7.478;2022-11-20T13:55:23;100271.00;;;4.30
12854;BMP180;6495;51.808;7.478;2022-11-20T13:58:28;100265.00;;;4.20
12854;BMP180;6495;51.808;7.478;2022-11-20T14:01:23;100259.00;;;4.20
12854;BMP180;6495;51.808;7.478;2022-11-20T14:04:18;100262.00;;;4.20
12854;BMP180;6495;51.808;7.478;2022-11-20T14:07:09;100257.00;;;4.20
12854;BMP180;6495;51.808;7.478;2022-11-20T14:09:57;100246.00;;;4.20
12854;BMP180;6495;51.808;7.478;2022-11-20T14:12:44;100252.00;;;4.20
12854;BMP180;6495;51.808;7.478;2022-11-20T14:15:33;100241.00;;;4.10
12854;BMP180;6495;51.808;7.478;2022-11-20T14:18:28;100245.00;;;4.10
12854;BMP180;6495;51.808;7.478;2022-11-20T14:21:23;100235.00;;;4.10
12854;BMP180;6495;51.808;7.478;2022-11-20T14:24:13;100233.00;;;4.10
12854;BMP180;6495;51.808;7.478;2022-11-20T14:27:00;100238.00;;;4.10
12854;BMP180;6495;51.808;7.478;2022-11-20T14:29:49;100243.00;;;4.00
12854;BMP180;6495;51.808;7.478;2022-11-20T14:32:37;100244.00;;;4.00
12854;BMP180;6495;51.808;7.478;2022-11-20T14:35:27;100235.00;;;4.00
12854;BMP180;6495;51.808;7.478;2022-11-20T14:38:17;100238.00;;;4.00
12854;BMP180;6495;51.808;7.478;2022-11-20T14:41:17;100233.00;;;4.00
12854;BMP180;6495;51.808;7.478;2022-11-20T14:44:04;100229.00;;;3.90
12854;BMP180;6495;51.808;7.478;2022-11-20T14:46:55;100220.00;;;3.90
12854;BMP180;6495;51.808;7.478;2022-11-20T14:49:43;100201.00;;;3.90
12854;BMP180;6495;51.808;7.478;2022-11-20T14:52:30;100207.00;;;4.00
12854;BMP180;6495;51.808;7.478;2022-11-20T14:55:29;100187.00;;;4.00
12854;BMP180;6495;51.808;7.478;2022-11-20T14:58:23;100179.00;;;3.90
12854;BMP180;6495;51.808;7.478;2022-11-20T15:01:12;100175.00;;;3.90
12854;BMP180;6495;51.808;7.478;2022-11-20T15:04:04;100171.00;;;3.90
12854;BMP180;6495;51.808;7.478;2022-11-20T15:06:54;100164.00;;;3.80
12854;BMP180;6495;51.808;7.478;2022-11-20T15:09:41;100171.00;;;3.80
12854;BMP180;6495;51.808;7.478;2022-11-20T15:12:29;100161.00;;;3.80
12854;BMP180;6495;51.808;7.478;2022-11-20T15:15:23;100168.00;;;3.80
12854;BMP180;6495;51.808;7.478;2022-11-20T15:18:14;100160.00;;;3.80
12854;BMP180;6495;51.808;7.478;2022-11-20T15:21:10;100158.00;;;3.80
12854;BMP180;6495;51.808;7.478;2022-11-20T15:23:57;100151.00;;;3.70
12854;BMP180;6495;51.808;7.478;2022-11-20T15:26:48;100143.00;;;3.70
12854;BMP180;6495;51.808;7.478;2022-11-20T15:29:35;100138.00;;;3.70
12854;BMP180;6495;51.808;7.478;2022-11-20T15:32:23;100127.00;;;3.70
12854;BMP180;6495;51.808;7.478;2022-11-20T15:35:10;100124.00;;;3.70
12854;BMP180;6495;51.808;7.478;2022-11-20T15:37:58;100126.00;;;3.60
12854;BMP180;6495;51.808;7.478;2022-11-20T15:40:45;100124.00;;;3.60
12854;BMP180;6495;51.808;7.478;2022-11-20T15:43:32;100120.00;;;3.60
12854;BMP180;6495;51.808;7.478;2022-11-20T15:46:26;100113.00;;;3.60
12854;BMP180;6495;51.808;7.478;2022-11-20T15:49:16;100110.00;;;3.60
12854;BMP180;6495;51.808;7.478;2022-11-20T15:52:04;100109.00;;;3.60
12854;BMP180;6495;51.808;7.478;2022-11-20T15:54:51;100104.00;;;3.60
12854;BMP180;6495;51.808;7.478;2022-11-20T15:57:39;100102.00;;;3.50
12854;BMP180;6495;51.808;7.478;2022-11-20T16:00:25;100098.00;;;3.50
12854;BMP180;6495;51.808;7.478;2022-11-20T16:03:14;100094.00;;;3.50
12854;BMP180;6495;51.808;7.478;2022-11-20T16:06:02;100080.00;;;3.50
12854;BMP180;6495;51.808;7.478;2022-11-20T16:08:50;100083.00;;;3.50
12854;BMP180;6495;51.808;7.478;2022-11-20T16:11:37;100082.00;;;3.50
12854;BMP180;6495;51.808;7.478;2022-11-20T16:14:25;100088.00;;;3.60
12854;BMP180;6495;51.808;7.478;2022-11-20T16:17:29;100075.00;;;3.60
12854;BMP180;6495;51.808;7.478;2022-11-20T16:20:29;100079.00;;;3.50
12854;BMP180;6495;51.808;7.478;2022-11-20T16:23:18;100076.00;;;3.50
12854;BMP180;6495;51.808;7.478;2022-11-20T16:26:10;100062.00;;;3.50
12854;BMP180;6495;51.808;7.478;2022-11-20T16:28:59;100068.00;;;3.50
12854;BMP180;6495;51.808;7.478;2022-11-20T16:31:46;100054.00;;;3.40
12854;BMP180;6495;51.808;7.478;2022-11-20T16:34:33;100039.00;;;3.30